PAL326 RPLL-RPVA
Flight info
| Callsign | PAL326 |
|---|---|
| Flight time | 0h 58m |
| Altitude | 33000 |
| Route | IPATA2R IPATA B462 ARREX ARREX2R |
| Aircraft | A320/M-SDE3FGHIRWY/LB1 |
Departure
| Time | 2026-04-15 08:44 |
|---|---|
| Airport | Ninoy Aquino International Airport (RPLL) |
Arrival
| Time | 2026-04-15 09:42 |
|---|---|
| Airport | Daniel Z. Romualdez Airport (RPVA) |
| Time | Latitude | Longitude | Altitude | Speed | Heading |
|---|---|---|---|---|---|
| 2026-04-15 08:27 | 14.50368 | 121.00475 | 69 ft | 0 kts | 308° |
| 2026-04-15 08:33 | 14.50358 | 121.00487 | 61 ft | 2 kts | 308° |
| 2026-04-15 08:34 | 14.50347 | 121.00501 | 65 ft | 2 kts | 308° |
| 2026-04-15 08:34 | 14.50336 | 121.00515 | 64 ft | 2 kts | 308° |
| 2026-04-15 08:34 | 14.50327 | 121.00531 | 64 ft | 3 kts | 276° |
| 2026-04-15 08:34 | 14.50329 | 121.00549 | 65 ft | 3 kts | 240° |
| 2026-04-15 08:35 | 14.50331 | 121.00554 | 65 ft | 0 kts | 234° |
| 2026-04-15 08:36 | 14.50331 | 121.00553 | 65 ft | 1 kts | 234° |
| 2026-04-15 08:36 | 14.50305 | 121.00516 | 63 ft | 11 kts | 237° |
| 2026-04-15 08:37 | 14.50280 | 121.00472 | 63 ft | 10 kts | 240° |
| 2026-04-15 08:37 | 14.50250 | 121.00413 | 61 ft | 9 kts | 243° |
| 2026-04-15 08:37 | 14.50223 | 121.00362 | 59 ft | 7 kts | 239° |
| 2026-04-15 08:37 | 14.50189 | 121.00332 | 67 ft | 6 kts | 201° |
| 2026-04-15 08:38 | 14.50160 | 121.00332 | 63 ft | 0 kts | 174° |
| 2026-04-15 08:39 | 14.50149 | 121.00333 | 66 ft | 2 kts | 178° |
| 2026-04-15 08:39 | 14.50107 | 121.00309 | 60 ft | 8 kts | 228° |
| 2026-04-15 08:39 | 14.50078 | 121.00263 | 64 ft | 7 kts | 241° |
| 2026-04-15 08:39 | 14.50064 | 121.00235 | 64 ft | 6 kts | 241° |
| 2026-04-15 08:40 | 14.50044 | 121.00199 | 68 ft | 5 kts | 241° |
| 2026-04-15 08:40 | 14.50022 | 121.00156 | 64 ft | 10 kts | 241° |
| 2026-04-15 08:40 | 14.49989 | 121.00096 | 67 ft | 9 kts | 240° |
| 2026-04-15 08:40 | 14.49961 | 121.00044 | 64 ft | 10 kts | 240° |
| 2026-04-15 08:41 | 14.49913 | 120.99973 | 69 ft | 10 kts | 214° |
| 2026-04-15 08:41 | 14.49848 | 120.99981 | 63 ft | 10 kts | 155° |
| 2026-04-15 08:41 | 14.49805 | 121.00038 | 64 ft | 11 kts | 79° |
| 2026-04-15 08:41 | 14.49822 | 121.00075 | 66 ft | 0 kts | 61° |
| 2026-04-15 08:43 | 14.49860 | 121.00145 | 63 ft | 43 kts | 61° |
| 2026-04-15 08:43 | 14.50126 | 121.00626 | 64 ft | 108 kts | 61° |
| 2026-04-15 08:44 | 14.50591 | 121.01459 | 64 ft | 158 kts | 60° |
| 2026-04-15 08:44 | 14.51156 | 121.02519 | 468 ft | 172 kts | 63° |
| 2026-04-15 08:44 | 14.51742 | 121.03592 | 1203 ft | 172 kts | 59° |
| 2026-04-15 08:44 | 14.52409 | 121.04626 | 1848 ft | 179 kts | 57° |
| 2026-04-15 08:45 | 14.53160 | 121.05746 | 2213 ft | 201 kts | 58° |
| 2026-04-15 08:45 | 14.54001 | 121.07003 | 2483 ft | 225 kts | 57° |
| 2026-04-15 08:45 | 14.54935 | 121.08406 | 2878 ft | 250 kts | 57° |
| 2026-04-15 08:45 | 14.55945 | 121.09927 | 3527 ft | 261 kts | 57° |
| 2026-04-15 08:46 | 14.56971 | 121.11499 | 4385 ft | 266 kts | 57° |
| 2026-04-15 08:46 | 14.57990 | 121.13098 | 5257 ft | 269 kts | 56° |
| 2026-04-15 08:46 | 14.59000 | 121.14740 | 6098 ft | 273 kts | 56° |
| 2026-04-15 08:46 | 14.60005 | 121.16422 | 6872 ft | 277 kts | 58° |
| 2026-04-15 08:47 | 14.60681 | 121.18297 | 7614 ft | 284 kts | 81° |
| 2026-04-15 08:47 | 14.60826 | 121.20351 | 8414 ft | 288 kts | 87° |
| 2026-04-15 08:47 | 14.60902 | 121.22426 | 9221 ft | 290 kts | 87° |
| 2026-04-15 08:47 | 14.60979 | 121.24491 | 9990 ft | 293 kts | 87° |
| 2026-04-15 08:48 | 14.61062 | 121.26646 | 10336 ft | 312 kts | 87° |
| 2026-04-15 08:48 | 14.61147 | 121.28961 | 10575 ft | 332 kts | 87° |
| 2026-04-15 08:48 | 14.61212 | 121.31376 | 11100 ft | 340 kts | 91° |
| 2026-04-15 08:48 | 14.60712 | 121.33771 | 11724 ft | 347 kts | 112° |
| 2026-04-15 08:49 | 14.59412 | 121.35886 | 12384 ft | 352 kts | 126° |
| 2026-04-15 08:49 | 14.57838 | 121.37835 | 13044 ft | 357 kts | 133° |
| 2026-04-15 08:49 | 14.55822 | 121.39368 | 13657 ft | 363 kts | 146° |
| 2026-04-15 08:49 | 14.53638 | 121.40721 | 14192 ft | 367 kts | 147° |
| 2026-04-15 08:50 | 14.51430 | 121.42067 | 14664 ft | 371 kts | 147° |
| 2026-04-15 08:50 | 14.49196 | 121.43417 | 14827 ft | 372 kts | 147° |
| 2026-04-15 08:50 | 14.46962 | 121.44765 | 14869 ft | 372 kts | 147° |
| 2026-04-15 08:50 | 14.44730 | 121.46114 | 14873 ft | 371 kts | 147° |
| 2026-04-15 08:51 | 14.42502 | 121.47463 | 14875 ft | 371 kts | 147° |
| 2026-04-15 08:51 | 14.40277 | 121.48812 | 14874 ft | 371 kts | 147° |
| 2026-04-15 08:51 | 14.38077 | 121.50145 | 14874 ft | 371 kts | 147° |
| 2026-04-15 08:51 | 14.35849 | 121.51496 | 14872 ft | 371 kts | 147° |
| 2026-04-15 08:52 | 14.33625 | 121.52847 | 14877 ft | 371 kts | 147° |
| 2026-04-15 08:52 | 14.31399 | 121.54202 | 14877 ft | 371 kts | 147° |
| 2026-04-15 08:52 | 14.29183 | 121.55554 | 14873 ft | 371 kts | 147° |
| 2026-04-15 08:52 | 14.26961 | 121.56907 | 14873 ft | 371 kts | 147° |
| 2026-04-15 08:53 | 14.24737 | 121.58254 | 14872 ft | 371 kts | 147° |
| 2026-04-15 08:53 | 14.22513 | 121.59597 | 14872 ft | 371 kts | 147° |
| 2026-04-15 08:53 | 14.20286 | 121.60943 | 14875 ft | 371 kts | 147° |
| 2026-04-15 08:53 | 14.18062 | 121.62289 | 14876 ft | 371 kts | 147° |
| 2026-04-15 08:54 | 14.15841 | 121.63632 | 14870 ft | 370 kts | 147° |
| 2026-04-15 08:54 | 14.13646 | 121.64961 | 14872 ft | 370 kts | 147° |
| 2026-04-15 08:54 | 14.11425 | 121.66306 | 14873 ft | 370 kts | 147° |
| 2026-04-15 08:54 | 14.09205 | 121.67652 | 14903 ft | 372 kts | 147° |
| 2026-04-15 08:55 | 14.06966 | 121.69008 | 15450 ft | 374 kts | 147° |
| 2026-04-15 08:55 | 14.04713 | 121.70374 | 16010 ft | 377 kts | 147° |
| 2026-04-15 08:55 | 14.02440 | 121.71750 | 16536 ft | 380 kts | 147° |
| 2026-04-15 08:55 | 14.00148 | 121.73137 | 17076 ft | 384 kts | 147° |
| 2026-04-15 08:56 | 13.97836 | 121.74535 | 17581 ft | 387 kts | 148° |
| 2026-04-15 08:56 | 13.95505 | 121.75944 | 18104 ft | 390 kts | 148° |
| 2026-04-15 08:56 | 13.93155 | 121.77363 | 18546 ft | 393 kts | 148° |
| 2026-04-15 08:56 | 13.90786 | 121.78794 | 19000 ft | 396 kts | 148° |
| 2026-04-15 08:57 | 13.88406 | 121.80239 | 19464 ft | 398 kts | 146° |
| 2026-04-15 08:57 | 13.86208 | 121.81970 | 19894 ft | 398 kts | 135° |
| 2026-04-15 08:57 | 13.84345 | 121.84078 | 20330 ft | 399 kts | 128° |
| 2026-04-15 08:57 | 13.82565 | 121.86283 | 20767 ft | 402 kts | 128° |
| 2026-04-15 08:58 | 13.80767 | 121.88495 | 21189 ft | 404 kts | 128° |
| 2026-04-15 08:58 | 13.77120 | 121.92948 | 22031 ft | 409 kts | 128° |
| 2026-04-15 08:58 | 13.75282 | 121.95191 | 22443 ft | 412 kts | 129° |
| 2026-04-15 08:59 | 13.73434 | 121.97452 | 22849 ft | 414 kts | 129° |
| 2026-04-15 08:59 | 13.71574 | 121.99729 | 23243 ft | 416 kts | 129° |
| 2026-04-15 08:59 | 13.69705 | 122.02016 | 23606 ft | 419 kts | 129° |
| 2026-04-15 08:59 | 13.67825 | 122.04314 | 23943 ft | 421 kts | 129° |
| 2026-04-15 09:00 | 13.65939 | 122.06620 | 24278 ft | 423 kts | 129° |
| 2026-04-15 09:00 | 13.64043 | 122.08940 | 24608 ft | 424 kts | 129° |
| 2026-04-15 09:00 | 13.62136 | 122.11272 | 24940 ft | 426 kts | 129° |
| 2026-04-15 09:00 | 13.60246 | 122.13582 | 25267 ft | 428 kts | 129° |
| 2026-04-15 09:01 | 13.58327 | 122.15927 | 25592 ft | 430 kts | 129° |
| 2026-04-15 09:01 | 13.56397 | 122.18283 | 25914 ft | 432 kts | 130° |
| 2026-04-15 09:01 | 13.54460 | 122.20647 | 26231 ft | 433 kts | 130° |
| 2026-04-15 09:01 | 13.52514 | 122.23024 | 26541 ft | 435 kts | 130° |
| 2026-04-15 09:02 | 13.50537 | 122.25441 | 26845 ft | 437 kts | 130° |
| 2026-04-15 09:02 | 13.48601 | 122.27805 | 27145 ft | 439 kts | 130° |
| 2026-04-15 09:02 | 13.46633 | 122.30207 | 27436 ft | 441 kts | 130° |
| 2026-04-15 09:02 | 13.44655 | 122.32622 | 27739 ft | 442 kts | 130° |
| 2026-04-15 09:03 | 13.42669 | 122.35045 | 28036 ft | 444 kts | 130° |
| 2026-04-15 09:03 | 13.40674 | 122.37477 | 28330 ft | 446 kts | 130° |
| 2026-04-15 09:03 | 13.38666 | 122.39925 | 28618 ft | 448 kts | 130° |
| 2026-04-15 09:03 | 13.36653 | 122.42377 | 28898 ft | 450 kts | 130° |
| 2026-04-15 09:04 | 13.34630 | 122.44841 | 29168 ft | 452 kts | 130° |
| 2026-04-15 09:04 | 13.32597 | 122.47312 | 29433 ft | 454 kts | 130° |
| 2026-04-15 09:04 | 13.30556 | 122.49793 | 29693 ft | 456 kts | 130° |
| 2026-04-15 09:04 | 13.28506 | 122.52285 | 29942 ft | 458 kts | 130° |
| 2026-04-15 09:05 | 13.26448 | 122.54789 | 30148 ft | 460 kts | 130° |
| 2026-04-15 09:05 | 13.24380 | 122.57303 | 30363 ft | 461 kts | 130° |
| 2026-04-15 09:05 | 13.22309 | 122.59825 | 30581 ft | 463 kts | 130° |
| 2026-04-15 09:05 | 13.20232 | 122.62353 | 30803 ft | 464 kts | 130° |
| 2026-04-15 09:06 | 13.18149 | 122.64888 | 31017 ft | 465 kts | 130° |
| 2026-04-15 09:06 | 13.16059 | 122.67426 | 31279 ft | 465 kts | 130° |
| 2026-04-15 09:06 | 13.13974 | 122.69958 | 31594 ft | 464 kts | 130° |
| 2026-04-15 09:06 | 13.11893 | 122.72486 | 31906 ft | 463 kts | 130° |
| 2026-04-15 09:07 | 13.09818 | 122.75004 | 32216 ft | 462 kts | 130° |
| 2026-04-15 09:07 | 13.07746 | 122.77518 | 32536 ft | 461 kts | 130° |
| 2026-04-15 09:07 | 13.05678 | 122.80026 | 32797 ft | 461 kts | 130° |
| 2026-04-15 09:07 | 13.03620 | 122.82524 | 32862 ft | 453 kts | 130° |
| 2026-04-15 09:08 | 12.99597 | 122.87407 | 32862 ft | 445 kts | 130° |
| 2026-04-15 09:08 | 12.95603 | 122.92242 | 32862 ft | 444 kts | 130° |
| 2026-04-15 09:09 | 12.91614 | 122.97073 | 32866 ft | 444 kts | 130° |
| 2026-04-15 09:09 | 12.87624 | 123.01901 | 32866 ft | 444 kts | 130° |
| 2026-04-15 09:10 | 12.83638 | 123.06722 | 32860 ft | 444 kts | 130° |
| 2026-04-15 09:10 | 12.79653 | 123.11552 | 32858 ft | 443 kts | 130° |
| 2026-04-15 09:11 | 12.75659 | 123.16371 | 32855 ft | 443 kts | 130° |
| 2026-04-15 09:11 | 12.71668 | 123.21187 | 32856 ft | 443 kts | 130° |
| 2026-04-15 09:12 | 12.67678 | 123.26005 | 32855 ft | 444 kts | 130° |
| 2026-04-15 09:12 | 12.63689 | 123.30826 | 32860 ft | 444 kts | 130° |
| 2026-04-15 09:13 | 12.59694 | 123.35642 | 32862 ft | 444 kts | 130° |
| 2026-04-15 09:13 | 12.55705 | 123.40446 | 32662 ft | 440 kts | 130° |
| 2026-04-15 09:14 | 12.53727 | 123.42825 | 32174 ft | 436 kts | 130° |
| 2026-04-15 09:14 | 12.51771 | 123.45177 | 31675 ft | 432 kts | 131° |
| 2026-04-15 09:14 | 12.49829 | 123.47514 | 31178 ft | 429 kts | 131° |
| 2026-04-15 09:14 | 12.47905 | 123.49834 | 30692 ft | 426 kts | 131° |
| 2026-04-15 09:15 | 12.46017 | 123.52111 | 30224 ft | 423 kts | 131° |
| 2026-04-15 09:15 | 12.44119 | 123.54399 | 29729 ft | 421 kts | 131° |
| 2026-04-15 09:15 | 12.42231 | 123.56677 | 29195 ft | 417 kts | 131° |
| 2026-04-15 09:15 | 12.40360 | 123.58932 | 28692 ft | 414 kts | 131° |
| 2026-04-15 09:16 | 12.38502 | 123.61162 | 28177 ft | 410 kts | 131° |
| 2026-04-15 09:16 | 12.36657 | 123.63375 | 27687 ft | 407 kts | 130° |
| 2026-04-15 09:16 | 12.34841 | 123.65579 | 27212 ft | 403 kts | 130° |
| 2026-04-15 09:16 | 12.33057 | 123.67778 | 26739 ft | 400 kts | 129° |
| 2026-04-15 09:17 | 12.31299 | 123.69964 | 26279 ft | 396 kts | 129° |
| 2026-04-15 09:17 | 12.29557 | 123.72135 | 25822 ft | 393 kts | 129° |
| 2026-04-15 09:17 | 12.27823 | 123.74287 | 25359 ft | 391 kts | 129° |
| 2026-04-15 09:17 | 12.26098 | 123.76418 | 24903 ft | 388 kts | 129° |
| 2026-04-15 09:18 | 12.24382 | 123.78532 | 24459 ft | 385 kts | 129° |
| 2026-04-15 09:18 | 12.22673 | 123.80634 | 24019 ft | 383 kts | 128° |
| 2026-04-15 09:18 | 12.20976 | 123.82720 | 23583 ft | 380 kts | 128° |
| 2026-04-15 09:18 | 12.19292 | 123.84796 | 23121 ft | 378 kts | 128° |
| 2026-04-15 09:19 | 12.17621 | 123.86859 | 22639 ft | 376 kts | 128° |
| 2026-04-15 09:19 | 12.15980 | 123.88883 | 22186 ft | 373 kts | 128° |
| 2026-04-15 09:19 | 12.14331 | 123.90916 | 21751 ft | 371 kts | 128° |
| 2026-04-15 09:19 | 12.12689 | 123.92938 | 21321 ft | 368 kts | 128° |
| 2026-04-15 09:20 | 12.11057 | 123.94945 | 20895 ft | 366 kts | 128° |
| 2026-04-15 09:20 | 12.09434 | 123.96942 | 20476 ft | 364 kts | 128° |
| 2026-04-15 09:20 | 12.07824 | 123.98925 | 20069 ft | 362 kts | 128° |
| 2026-04-15 09:20 | 12.06224 | 124.00896 | 19662 ft | 360 kts | 128° |
| 2026-04-15 09:21 | 12.04630 | 124.02857 | 19265 ft | 358 kts | 128° |
| 2026-04-15 09:21 | 12.03041 | 124.04812 | 19039 ft | 358 kts | 128° |
| 2026-04-15 09:21 | 12.01452 | 124.06766 | 18813 ft | 357 kts | 128° |
| 2026-04-15 09:21 | 11.99867 | 124.08714 | 18591 ft | 356 kts | 128° |
| 2026-04-15 09:22 | 11.98282 | 124.10659 | 18371 ft | 356 kts | 128° |
| 2026-04-15 09:22 | 11.96701 | 124.12601 | 18149 ft | 355 kts | 128° |
| 2026-04-15 09:22 | 11.95124 | 124.14541 | 17894 ft | 354 kts | 128° |
| 2026-04-15 09:22 | 11.93556 | 124.16470 | 17639 ft | 352 kts | 128° |
| 2026-04-15 09:23 | 11.91989 | 124.18392 | 17385 ft | 351 kts | 128° |
| 2026-04-15 09:23 | 11.90431 | 124.20300 | 17140 ft | 349 kts | 128° |
| 2026-04-15 09:23 | 11.88878 | 124.22204 | 16888 ft | 348 kts | 128° |
| 2026-04-15 09:23 | 11.87334 | 124.24098 | 16646 ft | 346 kts | 128° |
| 2026-04-15 09:24 | 11.85815 | 124.25961 | 16406 ft | 345 kts | 128° |
| 2026-04-15 09:24 | 11.84284 | 124.27841 | 16162 ft | 343 kts | 128° |
| 2026-04-15 09:24 | 11.82761 | 124.29714 | 15917 ft | 342 kts | 127° |
| 2026-04-15 09:24 | 11.81229 | 124.31606 | 15681 ft | 341 kts | 127° |
| 2026-04-15 09:25 | 11.79743 | 124.33439 | 15449 ft | 339 kts | 128° |
| 2026-04-15 09:25 | 11.78217 | 124.35315 | 15208 ft | 338 kts | 128° |
| 2026-04-15 09:25 | 11.76718 | 124.37152 | 14977 ft | 336 kts | 128° |
| 2026-04-15 09:25 | 11.75244 | 124.38959 | 14744 ft | 335 kts | 128° |
| 2026-04-15 09:26 | 11.73757 | 124.40783 | 14514 ft | 334 kts | 127° |
| 2026-04-15 09:26 | 11.72274 | 124.42601 | 14279 ft | 332 kts | 128° |
| 2026-04-15 09:26 | 11.70799 | 124.44408 | 14061 ft | 331 kts | 127° |
| 2026-04-15 09:26 | 11.69327 | 124.46215 | 13837 ft | 330 kts | 127° |
| 2026-04-15 09:27 | 11.67864 | 124.48012 | 13590 ft | 329 kts | 127° |
| 2026-04-15 09:27 | 11.66404 | 124.49802 | 13350 ft | 327 kts | 128° |
| 2026-04-15 09:27 | 11.65441 | 124.50980 | 13184 ft | 327 kts | 128° |
| 2026-04-15 09:27 | 11.63990 | 124.52758 | 12934 ft | 326 kts | 128° |
| 2026-04-15 09:28 | 11.62056 | 124.55130 | 12597 ft | 324 kts | 128° |
| 2026-04-15 09:28 | 11.61103 | 124.56297 | 12439 ft | 323 kts | 128° |
| 2026-04-15 09:28 | 11.59184 | 124.58649 | 12113 ft | 322 kts | 128° |
| 2026-04-15 09:28 | 11.58221 | 124.59831 | 11949 ft | 321 kts | 128° |
| 2026-04-15 09:29 | 11.56815 | 124.61552 | 11711 ft | 320 kts | 128° |
| 2026-04-15 09:29 | 11.55395 | 124.63289 | 11472 ft | 318 kts | 128° |
| 2026-04-15 09:29 | 11.53981 | 124.65021 | 11237 ft | 317 kts | 128° |
| 2026-04-15 09:29 | 11.52574 | 124.66748 | 11001 ft | 316 kts | 128° |
| 2026-04-15 09:30 | 11.51173 | 124.68466 | 10769 ft | 314 kts | 128° |
| 2026-04-15 09:30 | 11.49673 | 124.70082 | 10529 ft | 315 kts | 138° |
| 2026-04-15 09:30 | 11.47898 | 124.71388 | 10301 ft | 315 kts | 144° |
| 2026-04-15 09:30 | 11.46086 | 124.72633 | 10081 ft | 313 kts | 144° |
| 2026-04-15 09:31 | 11.44287 | 124.73880 | 9850 ft | 312 kts | 144° |
| 2026-04-15 09:31 | 11.42525 | 124.75102 | 9712 ft | 301 kts | 143° |
| 2026-04-15 09:31 | 11.40812 | 124.76292 | 9570 ft | 295 kts | 143° |
| 2026-04-15 09:31 | 11.39120 | 124.77467 | 9456 ft | 294 kts | 143° |
| 2026-04-15 09:32 | 11.37431 | 124.78641 | 9328 ft | 293 kts | 143° |
| 2026-04-15 09:32 | 11.35747 | 124.79808 | 9199 ft | 293 kts | 143° |
| 2026-04-15 09:32 | 11.34063 | 124.80978 | 9080 ft | 292 kts | 144° |
| 2026-04-15 09:32 | 11.32387 | 124.82143 | 8955 ft | 292 kts | 144° |
| 2026-04-15 09:33 | 11.30708 | 124.83308 | 8827 ft | 291 kts | 144° |
| 2026-04-15 09:33 | 11.29045 | 124.84461 | 8705 ft | 285 kts | 144° |
| 2026-04-15 09:33 | 11.27426 | 124.85582 | 8576 ft | 280 kts | 144° |
| 2026-04-15 09:33 | 11.25818 | 124.86694 | 8454 ft | 279 kts | 144° |
| 2026-04-15 09:34 | 11.24195 | 124.87775 | 8330 ft | 279 kts | 146° |
| 2026-04-15 09:34 | 11.22561 | 124.88837 | 8147 ft | 279 kts | 146° |
| 2026-04-15 09:34 | 11.20926 | 124.89892 | 7800 ft | 278 kts | 146° |
| 2026-04-15 09:34 | 11.19294 | 124.90946 | 7434 ft | 277 kts | 146° |
| 2026-04-15 09:35 | 11.17665 | 124.92005 | 7058 ft | 278 kts | 146° |
| 2026-04-15 09:35 | 11.16037 | 124.93068 | 6677 ft | 278 kts | 146° |
| 2026-04-15 09:35 | 11.14414 | 124.94127 | 6297 ft | 274 kts | 146° |
| 2026-04-15 09:35 | 11.12837 | 124.95155 | 5910 ft | 264 kts | 146° |
| 2026-04-15 09:36 | 11.11316 | 124.96144 | 5556 ft | 254 kts | 146° |
| 2026-04-15 09:36 | 11.09850 | 124.97097 | 5220 ft | 246 kts | 147° |
| 2026-04-15 09:36 | 11.08425 | 124.98027 | 4886 ft | 241 kts | 146° |
| 2026-04-15 09:36 | 11.07030 | 124.98939 | 4556 ft | 236 kts | 146° |
| 2026-04-15 09:37 | 11.05666 | 124.99830 | 4228 ft | 231 kts | 146° |
| 2026-04-15 09:37 | 11.04410 | 125.00807 | 3922 ft | 224 kts | 124° |
| 2026-04-15 09:37 | 11.03955 | 125.02226 | 3628 ft | 212 kts | 82° |
| 2026-04-15 09:37 | 11.04520 | 125.03553 | 3397 ft | 200 kts | 43° |
| 2026-04-15 09:38 | 11.05668 | 125.04191 | 3193 ft | 188 kts | 10° |
| 2026-04-15 09:38 | 11.06908 | 125.04031 | 2953 ft | 177 kts | 335° |
| 2026-04-15 09:38 | 11.07822 | 125.03269 | 2763 ft | 164 kts | 315° |
| 2026-04-15 09:38 | 11.08631 | 125.02525 | 2587 ft | 152 kts | 329° |
| 2026-04-15 09:39 | 11.09571 | 125.02091 | 2405 ft | 147 kts | 347° |
| 2026-04-15 09:39 | 11.10572 | 125.01963 | 2239 ft | 144 kts | 3° |
| 2026-04-15 09:39 | 11.11568 | 125.02032 | 2057 ft | 143 kts | 7° |
| 2026-04-15 09:39 | 11.12566 | 125.02098 | 1897 ft | 144 kts | 6° |
| 2026-04-15 09:40 | 11.13568 | 125.02165 | 1727 ft | 145 kts | 5° |
| 2026-04-15 09:40 | 11.14568 | 125.02231 | 1513 ft | 143 kts | 5° |
| 2026-04-15 09:40 | 11.15562 | 125.02297 | 1317 ft | 144 kts | 6° |
| 2026-04-15 09:40 | 11.16560 | 125.02362 | 1140 ft | 142 kts | 6° |
| 2026-04-15 09:41 | 11.17551 | 125.02427 | 940 ft | 143 kts | 5° |
| 2026-04-15 09:41 | 11.18542 | 125.02494 | 744 ft | 144 kts | 6° |
| 2026-04-15 09:41 | 11.19546 | 125.02563 | 518 ft | 145 kts | 5° |
| 2026-04-15 09:41 | 11.20557 | 125.02632 | 284 ft | 147 kts | 6° |
| 2026-04-15 09:42 | 11.21568 | 125.02696 | 104 ft | 146 kts | 5° |
| 2026-04-15 09:42 | 11.22524 | 125.02765 | 20 ft | 114 kts | 4° |
| 2026-04-15 09:42 | 11.23011 | 125.02794 | 15 ft | 26 kts | 3° |
| 2026-04-15 09:42 | 11.23102 | 125.02793 | 15 ft | 9 kts | 340° |
| 2026-04-15 09:43 | 11.23123 | 125.02798 | 15 ft | 1 kts | 127° |
| 2026-04-15 09:43 | 11.23092 | 125.02797 | 15 ft | 13 kts | 184° |
| 2026-04-15 09:43 | 11.22976 | 125.02790 | 15 ft | 18 kts | 184° |
| 2026-04-15 09:43 | 11.22844 | 125.02780 | 15 ft | 20 kts | 185° |
| 2026-04-15 09:44 | 11.22710 | 125.02769 | 19 ft | 14 kts | 184° |
| 2026-04-15 09:44 | 11.22621 | 125.02763 | 22 ft | 10 kts | 183° |
| 2026-04-15 09:44 | 11.22570 | 125.02739 | 19 ft | 7 kts | 233° |
| 2026-04-15 09:44 | 11.22589 | 125.02698 | 19 ft | 7 kts | 313° |
| 2026-04-15 09:45 | 11.22616 | 125.02660 | 18 ft | 6 kts | 306° |
| 2026-04-15 09:45 | 11.22625 | 125.02647 | 18 ft | 1 kts | 307° |
| 2026-04-15 09:45 | 11.22626 | 125.02646 | 18 ft | 0 kts | 307° |